Time,TemperatureF,DewpointF,PressureIn,WindDirection,WindDirectionDegrees,WindSpeedMPH,WindSpeedGustMPH,Humidity,HourlyPrecipIn,Conditions,Clouds,dailyrainin,SoftwareType,DateUTC
2014-01-28 00:06:00,50.5,45.5,30.00,SSW,202,0.0,-999.0,83,-99.99,,,0.00,Acu-Link.com,2014-01-28 08:06:00,
2014-01-28 00:21:00,50.5,45.8,30.00,SE,135,0.0,-999.0,84,-99.99,,,0.00,Acu-Link.com,2014-01-28 08:21:00,
2014-01-28 00:36:00,50.4,45.4,29.99,SSE,157,0.0,-999.0,83,-99.99,,,0.00,Acu-Link.com,2014-01-28 08:36:00,
2014-01-28 00:51:00,50.4,45.8,29.99,SE,135,0.0,-999.0,84,-99.99,,,0.00,Acu-Link.com,2014-01-28 08:51:00,
2014-01-28 01:07:00,50.0,45.7,30.00,West,270,0.0,-999.0,85,-99.99,,,0.00,Acu-Link.com,2014-01-28 09:07:00,
2014-01-28 01:22:00,49.5,45.5,30.00,ESE,112,0.0,-999.0,86,-99.99,,,0.00,Acu-Link.com,2014-01-28 09:22:00,
2014-01-28 02:04:00,48.7,45.0,30.00,ESE,112,0.0,-999.0,87,-99.99,,,0.00,Acu-Link.com,2014-01-28 10:04:00,
2014-01-28 02:19:00,48.6,45.5,30.00,ESE,112,1.1,-999.0,89,-99.99,,,0.00,Acu-Link.com,2014-01-28 10:19:00,
2014-01-28 02:34:00,48.2,45.4,30.01,ESE,112,0.0,-999.0,90,-99.99,,,0.00,Acu-Link.com,2014-01-28 10:34:00,
2014-01-28 02:49:00,47.8,44.7,30.02,SE,135,0.0,-999.0,89,-99.99,,,0.00,Acu-Link.com,2014-01-28 10:49:00,
2014-01-28 03:04:00,47.5,44.7,30.02,SE,135,0.0,-999.0,90,-99.99,,,0.00,Acu-Link.com,2014-01-28 11:04:00,
2014-01-28 03:20:00,46.9,44.7,30.03,ESE,112,0.0,-999.0,92,-99.99,,,0.00,Acu-Link.com,2014-01-28 11:20:00,
2014-01-28 03:35:00,47.1,44.9,30.01,SE,135,0.0,-999.0,92,-99.99,,,0.00,Acu-Link.com,2014-01-28 11:35:00,
2014-01-28 03:50:00,47.1,44.6,30.01,SSE,157,0.0,-999.0,91,-99.99,,,0.00,Acu-Link.com,2014-01-28 11:50:00,
2014-01-28 04:06:00,47.3,44.8,30.01,SSE,157,0.0,-999.0,91,-99.99,,,0.00,Acu-Link.com,2014-01-28 12:06:00,
2014-01-28 04:21:00,47.5,45.0,30.02,SSW,202,0.0,-999.0,91,-99.99,,,0.00,Acu-Link.com,2014-01-28 12:21:00,
2014-01-28 04:36:00,48.2,45.7,30.01,ESE,112,0.0,-999.0,91,-99.99,,,0.00,Acu-Link.com,2014-01-28 12:36:00,
2014-01-28 04:51:00,48.4,45.6,30.01,WNW,292,0.0,-999.0,90,-99.99,,,0.00,Acu-Link.com,2014-01-28 12:51:00,
2014-01-28 05:06:00,48.9,46.1,30.02,West,270,0.0,-999.0,90,-99.99,,,0.00,Acu-Link.com,2014-01-28 13:06:00,
2014-01-28 05:22:00,49.1,46.3,30.03,SSW,202,0.0,-999.0,90,-99.99,,,0.00,Acu-Link.com,2014-01-28 13:22:00,
2014-01-28 05:37:00,49.1,46.0,30.01,West,270,0.0,-999.0,89,-99.99,,,0.00,Acu-Link.com,2014-01-28 13:37:00,
2014-01-28 05:52:00,49.1,46.6,30.01,ESE,112,0.0,-999.0,91,-99.99,,,0.00,Acu-Link.com,2014-01-28 13:52:00,
2014-01-28 06:08:00,49.5,47.0,30.02,ESE,112,0.0,-999.0,91,-99.99,,,0.00,Acu-Link.com,2014-01-28 14:08:00,
2014-01-28 06:23:00,49.3,46.8,30.04,WNW,292,0.0,-999.0,91,-99.99,,,0.00,Acu-Link.com,2014-01-28 14:23:00,
2014-01-28 06:38:00,49.6,47.1,30.04,SE,135,0.0,-999.0,91,-99.99,,,0.00,Acu-Link.com,2014-01-28 14:38:00,
2014-01-28 06:53:00,49.8,47.3,30.04,WSW,247,0.0,-999.0,91,-99.99,,,0.00,Acu-Link.com,2014-01-28 14:53:00,
2014-01-28 07:09:00,50.2,47.7,30.04,ESE,112,0.0,-999.0,91,-99.99,,,0.00,Acu-Link.com,2014-01-28 15:09:00,
2014-01-28 07:24:00,49.6,47.4,30.04,SE,135,0.0,-999.0,92,-99.99,,,0.00,Acu-Link.com,2014-01-28 15:24:00,
2014-01-28 07:39:00,49.5,47.3,30.05,ESE,112,0.0,-999.0,92,-99.99,,,0.00,Acu-Link.com,2014-01-28 15:39:00,
2014-01-28 07:54:00,50.0,47.8,30.05,West,270,0.0,-999.0,92,-99.99,,,0.00,Acu-Link.com,2014-01-28 15:54:00,
2014-01-28 08:10:00,51.3,48.8,30.05,NE,45,1.7,-999.0,91,-99.99,,,0.00,Acu-Link.com,2014-01-28 16:10:00,
2014-01-28 08:25:00,52.2,49.4,30.05,WSW,247,0.0,-999.0,90,-99.99,,,0.00,Acu-Link.com,2014-01-28 16:25:00,
2014-01-28 08:40:00,53.1,49.3,30.05,WSW,247,1.1,-999.0,87,-99.99,,,0.00,Acu-Link.com,2014-01-28 16:40:00,
2014-01-28 08:56:00,54.3,49.6,30.05,SE,135,0.0,-999.0,84,-99.99,,,0.00,Acu-Link.com,2014-01-28 16:56:00,
2014-01-28 09:11:00,55.0,49.6,30.05,SSW,202,1.1,-999.0,82,-99.99,,,0.00,Acu-Link.com,2014-01-28 17:11:00,
2014-01-28 09:26:00,56.5,50.4,30.05,ESE,112,0.0,-999.0,80,-99.99,,,0.00,Acu-Link.com,2014-01-28 17:26:00,
2014-01-28 09:42:00,58.5,49.9,30.06,ESE,112,1.1,-999.0,73,-99.99,,,0.00,Acu-Link.com,2014-01-28 17:42:00,
2014-01-28 09:57:00,59.7,49.9,30.06,NNW,337,1.7,-999.0,70,-99.99,,,0.00,Acu-Link.com,2014-01-28 17:57:00,
2014-01-28 10:12:00,61.5,49.6,30.07,SE,135,0.0,-999.0,65,-99.99,,,0.00,Acu-Link.com,2014-01-28 18:12:00,
2014-01-28 10:27:00,63.5,50.7,30.07,WNW,292,0.0,-999.0,63,-99.99,,,0.00,Acu-Link.com,2014-01-28 18:27:00,
2014-01-28 10:43:00,63.0,49.8,30.07,SSW,202,0.0,-999.0,62,-99.99,,,0.00,Acu-Link.com,2014-01-28 18:43:00,
2014-01-28 10:58:00,64.6,49.5,30.07,East,90,1.1,-999.0,58,-99.99,,,0.00,Acu-Link.com,2014-01-28 18:58:00,
2014-01-28 11:13:00,64.2,49.1,30.06,ESE,112,1.1,-999.0,58,-99.99,,,0.00,Acu-Link.com,2014-01-28 19:13:00,
2014-01-28 11:29:00,65.5,49.4,30.06,SW,225,1.1,-999.0,56,-99.99,,,0.00,Acu-Link.com,2014-01-28 19:29:00,
2014-01-28 11:44:00,66.2,49.5,30.04,East,90,1.1,-999.0,55,-99.99,,,0.00,Acu-Link.com,2014-01-28 19:44:00,
2014-01-28 11:59:00,66.6,48.9,30.03,SE,135,1.7,-999.0,53,-99.99,,,0.00,Acu-Link.com,2014-01-28 19:59:00,
2014-01-28 12:14:00,68.4,50.1,30.03,SE,135,1.1,-999.0,52,-99.99,,,0.00,Acu-Link.com,2014-01-28 20:14:00,
2014-01-28 12:29:00,68.0,50.2,30.02,East,90,0.0,-999.0,53,-99.99,,,0.00,Acu-Link.com,2014-01-28 20:29:00,
2014-01-28 12:45:00,70.5,51.0,30.01,West,270,0.0,-999.0,50,-99.99,,,0.00,Acu-Link.com,2014-01-28 20:45:00,
2014-01-28 13:00:00,69.1,50.7,30.01,SE,135,3.2,-999.0,52,-99.99,,,0.00,Acu-Link.com,2014-01-28 21:00:00,
2014-01-28 13:15:00,68.5,50.7,29.99,East,90,0.0,-999.0,53,-99.99,,,0.00,Acu-Link.com,2014-01-28 21:15:00,
2014-01-28 13:30:00,70.0,51.0,29.99,SE,135,1.7,-999.0,51,-99.99,,,0.00,Acu-Link.com,2014-01-28 21:30:00,
2014-01-28 13:46:00,69.8,51.4,29.99,SE,135,3.2,-999.0,52,-99.99,,,0.00,Acu-Link.com,2014-01-28 21:46:00,
2014-01-28 14:01:00,69.4,51.5,29.98,SSE,157,3.7,-999.0,53,-99.99,,,0.00,Acu-Link.com,2014-01-28 22:01:00,
2014-01-28 14:16:00,70.2,52.8,29.98,West,270,1.7,-999.0,54,-99.99,,,0.00,Acu-Link.com,2014-01-28 22:16:00,
2014-01-28 14:32:00,72.3,54.2,29.98,East,90,1.7,-999.0,53,-99.99,,,0.00,Acu-Link.com,2014-01-28 22:32:00,
2014-01-28 14:47:00,72.1,55.0,29.98,West,270,2.2,-999.0,55,-99.99,,,0.00,Acu-Link.com,2014-01-28 22:47:00,
2014-01-28 15:02:00,72.3,55.7,29.98,West,270,2.7,-999.0,56,-99.99,,,0.00,Acu-Link.com,2014-01-28 23:02:00,
2014-01-28 15:17:00,74.3,56.6,29.99,WSW,247,1.7,-999.0,54,-99.99,,,0.00,Acu-Link.com,2014-01-28 23:17:00,
2014-01-28 15:48:00,71.1,56.5,29.99,South,180,1.7,-999.0,60,-99.99,,,0.00,Acu-Link.com,2014-01-28 23:48:00,
2014-01-28 16:03:00,69.3,56.2,29.98,ESE,112,2.2,-999.0,63,-99.99,,,0.00,Acu-Link.com,2014-01-29 00:03:00,
2014-01-28 16:18:00,68.7,56.0,29.99,SW,225,0.0,-999.0,64,-99.99,,,0.00,Acu-Link.com,2014-01-29 00:18:00,
2014-01-28 16:34:00,68.2,56.4,29.99,South,180,1.1,-999.0,66,-99.99,,,0.00,Acu-Link.com,2014-01-29 00:34:00,
2014-01-28 16:49:00,68.0,56.2,29.99,NNE,22,0.0,-999.0,66,-99.99,,,0.00,Acu-Link.com,2014-01-29 00:49:00,
2014-01-28 17:04:00,66.9,56.0,29.99,ESE,112,0.0,-999.0,68,-99.99,,,0.00,Acu-Link.com,2014-01-29 01:04:00,
2014-01-28 17:19:00,65.7,56.0,29.99,East,90,1.1,-999.0,71,-99.99,,,0.00,Acu-Link.com,2014-01-29 01:19:00,
2014-01-28 17:35:00,64.9,56.4,29.99,South,180,1.1,-999.0,74,-99.99,,,0.00,Acu-Link.com,2014-01-29 01:35:00,
2014-01-28 17:50:00,64.2,56.1,29.99,WSW,247,0.0,-999.0,75,-99.99,,,0.00,Acu-Link.com,2014-01-29 01:50:00,
2014-01-28 18:05:00,63.1,55.8,29.99,SE,135,0.0,-999.0,77,-99.99,,,0.00,Acu-Link.com,2014-01-29 02:05:00,
2014-01-28 18:21:00,62.1,55.5,29.99,SSE,157,0.0,-999.0,79,-99.99,,,0.00,Acu-Link.com,2014-01-29 02:21:00,
2014-01-28 18:36:00,61.0,55.5,30.00,ESE,112,0.0,-999.0,82,-99.99,,,0.00,Acu-Link.com,2014-01-29 02:36:00,
2014-01-28 18:51:00,60.3,55.1,30.00,ESE,112,0.0,-999.0,83,-99.99,,,0.00,Acu-Link.com,2014-01-29 02:51:00,
2014-01-28 19:06:00,59.7,54.2,30.00,SW,225,0.0,-999.0,82,-99.99,,,0.00,Acu-Link.com,2014-01-29 03:06:00,
2014-01-28 19:22:00,59.4,54.9,30.01,SE,135,0.0,-999.0,85,-99.99,,,0.00,Acu-Link.com,2014-01-29 03:22:00,
2014-01-28 19:37:00,59.7,55.5,30.01,SSW,202,0.0,-999.0,86,-99.99,,,0.00,Acu-Link.com,2014-01-29 03:37:00,
2014-01-28 19:52:00,60.1,55.9,30.02,SE,135,0.0,-999.0,86,-99.99,,,0.00,Acu-Link.com,2014-01-29 03:52:00,
2014-01-28 20:07:00,60.1,55.9,30.02,ESE,112,0.0,-999.0,86,-99.99,,,0.00,Acu-Link.com,2014-01-29 04:07:00,
2014-01-28 20:23:00,60.3,56.1,30.02,ESE,112,0.0,-999.0,86,-99.99,,,0.00,Acu-Link.com,2014-01-29 04:23:00,
2014-01-28 20:38:00,60.4,55.9,30.02,NNE,22,0.0,-999.0,85,-99.99,,,0.00,Acu-Link.com,2014-01-29 04:38:00,
2014-01-28 20:53:00,60.4,56.2,30.02,SSW,202,0.0,-999.0,86,-99.99,,,0.00,Acu-Link.com,2014-01-29 04:53:00,
2014-01-28 21:08:00,60.3,56.4,30.02,North,0,0.0,-999.0,87,-99.99,,,0.00,Acu-Link.com,2014-01-29 05:08:00,
2014-01-28 21:23:00,60.3,56.4,30.01,SW,225,0.0,-999.0,87,-99.99,,,0.00,Acu-Link.com,2014-01-29 05:23:00,
2014-01-28 21:39:00,60.1,56.2,30.01,ESE,112,0.0,-999.0,87,-99.99,,,0.00,Acu-Link.com,2014-01-29 05:39:00,
2014-01-28 21:54:00,59.9,56.0,30.01,WNW,292,0.0,-999.0,87,-99.99,,,0.00,Acu-Link.com,2014-01-29 05:54:00,
2014-01-28 22:09:00,59.7,56.1,30.01,ESE,112,0.0,-999.0,88,-99.99,,,0.00,Acu-Link.com,2014-01-29 06:09:00,
2014-01-28 22:24:00,59.4,55.5,30.01,ESE,112,0.0,-999.0,87,-99.99,,,0.00,Acu-Link.com,2014-01-29 06:24:00,
2014-01-28 22:40:00,59.0,56.1,30.02,ESE,112,0.0,-999.0,90,-99.99,,,0.00,Acu-Link.com,2014-01-29 06:40:00,
2014-01-28 22:55:00,58.8,56.2,30.02,West,270,0.0,-999.0,91,-99.99,,,0.00,Acu-Link.com,2014-01-29 06:55:00,
2014-01-28 23:10:00,59.0,57.0,30.02,SSE,157,0.0,-999.0,93,-99.99,,,0.00,Acu-Link.com,2014-01-29 07:10:00,
2014-01-28 23:25:00,59.0,56.7,30.02,SE,135,0.0,-999.0,92,-99.99,,,0.00,Acu-Link.com,2014-01-29 07:25:00,
2014-01-28 23:56:00,58.6,56.0,30.01,ESE,112,0.0,-999.0,91,-99.99,,,0.00,Acu-Link.com,2014-01-29 07:56:00,